createdAt,value
2019-05-28T00:00:42.768Z,8.15
2019-05-28T00:03:11.521Z,7.97
2019-05-28T00:05:40.305Z,7.62
2019-05-28T00:08:09.321Z,7.90
2019-05-28T00:10:37.977Z,8.25
2019-05-28T00:13:06.692Z,8.30
2019-05-28T00:15:35.421Z,8.53
2019-05-28T00:18:04.136Z,8.88
2019-05-28T00:20:32.932Z,7.85
2019-05-28T00:23:01.593Z,8.13
2019-05-28T00:25:30.276Z,8.20
2019-05-28T00:27:58.993Z,8.40
2019-05-28T00:30:27.636Z,8.20
2019-05-28T00:32:56.368Z,8.00
2019-05-28T00:35:25.091Z,8.05
2019-05-28T00:37:53.852Z,8.30
2019-05-28T00:40:22.563Z,9.15
2019-05-28T00:42:51.293Z,8.60
2019-05-28T00:45:21.112Z,9.03
2019-05-28T00:47:49.829Z,8.95
2019-05-28T00:50:18.653Z,8.58
2019-05-28T00:52:47.381Z,9.05
2019-05-28T00:55:17.828Z,9.23
2019-05-28T00:57:48.018Z,8.73
2019-05-28T01:00:17.402Z,9.30
2019-05-28T01:02:46.125Z,10.25
2019-05-28T01:05:14.849Z,9.23
2019-05-28T01:07:43.528Z,9.08
2019-05-28T01:10:13.453Z,9.15
2019-05-28T01:12:42.116Z,9.15
2019-05-28T01:15:11.328Z,8.90
2019-05-28T01:17:39.985Z,9.15
2019-05-28T01:20:09.332Z,10.50
2019-05-28T01:22:38.052Z,9.68
2019-05-28T01:25:07.265Z,9.95
2019-05-28T01:27:35.984Z,8.25
2019-05-28T01:30:06.616Z,10.15
2019-05-28T01:32:35.353Z,10.13
2019-05-28T01:35:05.653Z,8.80
2019-05-28T01:37:34.377Z,9.90
2019-05-28T01:40:04.736Z,9.80
2019-05-28T01:42:52.773Z,9.83
2019-05-28T01:45:23.166Z,9.50
2019-05-28T01:47:51.810Z,10.03
2019-05-28T01:50:20.554Z,9.20
2019-05-28T01:52:49.256Z,9.38
2019-05-28T01:55:17.973Z,9.25
2019-05-28T01:57:46.629Z,9.80
2019-05-28T02:00:17.085Z,9.03
2019-05-28T02:02:45.781Z,9.98
2019-05-28T02:05:14.875Z,9.75
2019-05-28T02:07:43.603Z,9.95
2019-05-28T02:10:12.828Z,11.03
2019-05-28T02:12:41.577Z,9.28
2019-05-28T02:15:11.514Z,9.10
2019-05-28T02:17:40.229Z,8.58
2019-05-28T02:20:10.250Z,8.10
2019-05-28T02:22:38.903Z,8.35
2019-05-28T02:25:08.521Z,8.35
2019-05-28T02:27:37.174Z,7.78
2019-05-28T02:30:09.089Z,7.75
2019-05-28T02:32:38.068Z,7.50
2019-05-28T02:35:07.683Z,7.95
2019-05-28T02:37:36.416Z,7.33
2019-05-28T02:40:08.842Z,7.28
2019-05-28T02:45:11.781Z,7.42
2019-05-28T02:47:40.507Z,7.00
2019-05-28T02:50:10.625Z,7.08
2019-05-28T02:52:40.765Z,6.20
2019-05-28T02:55:10.286Z,6.30
2019-05-28T02:57:40.684Z,6.53
2019-05-28T03:00:13.872Z,6.35
2019-05-28T03:02:45.533Z,5.75
2019-05-28T03:05:14.891Z,6.25
2019-05-28T03:07:45.416Z,6.03
2019-05-28T03:10:14.541Z,5.97
2019-05-28T03:12:43.289Z,6.70
2019-05-28T03:15:12.002Z,5.85
2019-05-28T03:17:42.149Z,5.85
2019-05-28T03:20:12.439Z,6.05
2019-05-28T03:22:42.770Z,6.33
2019-05-28T03:25:11.489Z,6.15
2019-05-28T03:27:40.248Z,6.03
2019-05-28T03:30:10.380Z,5.05
2019-05-28T03:32:39.106Z,5.40
2019-05-28T03:35:08.016Z,5.15
2019-05-28T03:37:37.440Z,4.95
2019-05-28T03:40:08.637Z,5.03
2019-05-28T03:42:38.453Z,4.40
2019-05-28T03:45:10.266Z,4.58
2019-05-28T03:47:39.058Z,5.45
2019-05-28T03:50:07.980Z,5.10
2019-05-28T03:52:36.712Z,4.80
2019-05-28T03:55:07.006Z,4.67
2019-05-28T03:57:35.771Z,4.65
2019-05-28T04:00:06.076Z,4.55
2019-05-28T04:02:34.738Z,4.65
2019-05-28T04:05:03.464Z,4.67
2019-05-28T04:07:34.180Z,4.85
2019-05-28T04:10:02.825Z,4.72
2019-05-28T04:12:31.923Z,4.70
2019-05-28T04:15:02.549Z,4.87
2019-05-28T04:17:31.386Z,4.90
2019-05-28T04:20:00.618Z,4.62
2019-05-28T04:22:29.582Z,4.78
2019-05-28T04:25:16.372Z,4.85
2019-05-28T04:27:45.037Z,4.55
2019-05-28T04:30:13.967Z,4.72
2019-05-28T04:32:51.674Z,4.47
2019-05-28T04:35:20.388Z,4.92
2019-05-28T04:37:49.036Z,4.97
2019-05-28T04:40:17.760Z,4.05
2019-05-28T04:42:46.505Z,4.17
2019-05-28T04:45:15.223Z,4.15
2019-05-28T04:47:43.947Z,4.65
2019-05-28T04:50:13.068Z,3.83
2019-05-28T04:52:41.861Z,4.80
2019-05-28T04:55:10.726Z,4.37
2019-05-28T04:57:39.468Z,4.28
2019-05-28T05:00:09.700Z,4.78
2019-05-28T05:02:38.432Z,4.47
2019-05-28T05:05:08.354Z,5.17
2019-05-28T05:07:37.117Z,4.90
2019-05-28T05:10:06.526Z,4.67
2019-05-28T05:12:35.260Z,4.53
2019-05-28T05:15:04.908Z,5.50
2019-05-28T05:17:33.757Z,4.83
2019-05-28T05:20:02.481Z,4.42
2019-05-28T05:22:31.205Z,5.75
2019-05-28T05:24:59.938Z,5.65
2019-05-28T05:27:28.674Z,5.62
2019-05-28T05:29:57.414Z,6.37
2019-05-28T05:32:27.874Z,6.28
2019-05-28T05:34:56.381Z,5.08
2019-05-28T05:37:25.176Z,5.75
2019-05-28T05:39:53.882Z,6.50
2019-05-28T05:42:22.613Z,6.58
2019-05-28T05:44:51.341Z,7.83
2019-05-28T05:47:20.061Z,6.15
2019-05-28T05:49:48.709Z,6.85
2019-05-28T05:52:17.460Z,6.30
2019-05-28T05:54:46.117Z,6.45
2019-05-28T05:57:14.832Z,6.70
2019-05-28T05:59:43.577Z,6.53
2019-05-28T06:02:12.304Z,6.70
2019-05-28T06:04:41.021Z,5.35
2019-05-28T06:07:09.745Z,6.65
2019-05-28T06:09:38.501Z,5.42
2019-05-28T06:12:07.221Z,5.30
2019-05-28T06:14:38.080Z,6.25
2019-05-28T06:17:06.387Z,6.80
2019-05-28T06:19:35.344Z,10.95
2019-05-28T06:22:04.680Z,9.58
2019-05-28T06:24:33.482Z,9.60
2019-05-28T06:27:02.168Z,8.13
2019-05-28T06:29:30.929Z,7.60
2019-05-28T06:31:59.582Z,6.97
2019-05-28T06:34:28.312Z,8.23
2019-05-28T06:36:57.129Z,7.30
2019-05-28T06:39:25.792Z,6.42
2019-05-28T06:41:54.483Z,5.50
2019-05-28T06:44:23.240Z,5.42
2019-05-28T06:46:51.973Z,6.70
2019-05-28T06:49:20.626Z,8.13
2019-05-28T06:51:49.355Z,8.90
2019-05-28T06:54:18.075Z,7.72
2019-05-28T06:56:46.811Z,6.60
2019-05-28T06:59:15.457Z,6.53
2019-05-28T07:01:44.216Z,7.50
2019-05-28T07:04:16.002Z,8.90
2019-05-28T07:06:43.837Z,10.70
2019-05-28T07:09:12.631Z,12.20
2019-05-28T07:11:41.293Z,14.83
2019-05-28T07:14:10.033Z,14.00
2019-05-28T07:16:52.008Z,15.23
2019-05-28T07:19:23.404Z,17.87
2019-05-28T07:21:39.481Z,10.88
2019-05-28T07:24:08.547Z,12.88
2019-05-28T07:26:37.333Z,9.85
2019-05-28T07:29:06.055Z,8.45
2019-05-28T07:31:34.709Z,8.28
2019-05-28T07:34:03.433Z,8.60
2019-05-28T07:36:32.930Z,8.83
2019-05-28T07:39:01.617Z,8.50
2019-05-28T07:41:30.401Z,7.95
2019-05-28T07:43:59.060Z,7.08
2019-05-28T07:46:27.786Z,7.35
2019-05-28T07:48:56.517Z,7.22
2019-05-28T07:51:25.165Z,6.45
2019-05-28T07:53:54.500Z,6.90
2019-05-28T07:56:24.416Z,7.10
2019-05-28T07:58:53.201Z,7.83
2019-05-28T08:01:22.147Z,8.95
2019-05-28T08:03:50.870Z,9.85
2019-05-28T08:06:19.593Z,8.93
2019-05-28T08:08:48.337Z,10.55
2019-05-28T08:11:17.052Z,8.55
2019-05-28T08:13:45.767Z,8.33
2019-05-28T08:16:18.588Z,6.78
2019-05-28T08:18:46.304Z,6.85
2019-05-28T08:21:15.039Z,6.70
2019-05-28T08:23:43.694Z,6.33
2019-05-28T08:26:12.423Z,6.12
2019-05-28T08:28:41.145Z,6.47
2019-05-28T08:31:15.543Z,7.62
2019-05-28T08:33:41.304Z,5.70
2019-05-28T08:36:10.336Z,7.87
2019-05-28T08:38:39.096Z,6.92
2019-05-28T08:41:07.905Z,6.58
2019-05-28T08:43:36.573Z,5.40
2019-05-28T08:46:05.292Z,5.37
2019-05-28T08:48:34.122Z,6.00
2019-05-28T08:51:02.812Z,5.30
2019-05-28T08:53:31.463Z,5.58
2019-05-28T08:56:00.209Z,5.85
2019-05-28T08:58:28.920Z,5.22
2019-05-28T09:00:57.645Z,5.85
2019-05-28T09:03:26.372Z,5.62
2019-05-28T09:05:55.093Z,5.80
2019-05-28T09:08:37.795Z,4.67
2019-05-28T09:10:54.199Z,5.35
2019-05-28T09:13:22.882Z,4.67
2019-05-28T09:15:51.668Z,4.97
2019-05-28T09:18:20.395Z,4.78
2019-05-28T09:20:49.220Z,4.90
2019-05-28T09:23:17.894Z,4.70
2019-05-28T09:25:46.628Z,4.45
2019-05-28T09:28:29.217Z,4.47
2019-05-28T09:30:45.721Z,5.08
2019-05-28T09:33:15.069Z,4.90
2019-05-28T09:35:50.564Z,5.00
2019-05-28T09:38:14.160Z,5.22
2019-05-28T09:40:49.919Z,5.53
2019-05-28T09:43:13.526Z,4.78
2019-05-28T09:45:42.360Z,4.53
2019-05-28T09:48:11.013Z,4.62
2019-05-28T09:50:39.665Z,4.85
2019-05-28T09:53:08.437Z,4.50
2019-05-28T09:55:37.060Z,5.30
2019-05-28T09:58:05.893Z,4.12
2019-05-28T10:00:36.542Z,3.70
2019-05-28T10:03:05.882Z,4.20
2019-05-28T10:05:34.707Z,4.20
2019-05-28T10:08:03.423Z,5.17
2019-05-28T10:10:32.138Z,4.03
2019-05-28T10:13:00.853Z,4.00
2019-05-28T10:15:29.572Z,4.78
2019-05-28T10:17:58.636Z,4.37
2019-05-28T10:20:28.612Z,4.40
2019-05-28T10:22:57.338Z,4.42
2019-05-28T10:25:26.092Z,4.15
2019-05-28T10:28:00.953Z,4.62
2019-05-28T10:30:27.172Z,4.83
2019-05-28T10:32:55.900Z,6.17
2019-05-28T10:35:24.916Z,4.85
2019-05-28T10:37:53.687Z,5.20
2019-05-28T10:40:22.694Z,6.30
2019-05-28T10:42:52.300Z,6.83
2019-05-28T10:45:21.436Z,8.60
2019-05-28T10:47:50.150Z,6.47
2019-05-28T10:50:20.357Z,6.10
2019-05-28T10:52:49.099Z,4.47
2019-05-28T10:55:17.991Z,5.25
2019-05-28T10:57:46.720Z,5.03
2019-05-28T11:00:16.368Z,4.00
2019-05-28T11:02:45.072Z,5.12
2019-05-28T11:05:14.289Z,4.12
2019-05-28T11:07:43.010Z,4.95
2019-05-28T11:10:23.659Z,4.22
2019-05-28T11:12:43.718Z,4.85
2019-05-28T11:15:13.256Z,4.97
2019-05-28T11:17:41.988Z,6.37
2019-05-28T11:20:12.910Z,5.97
2019-05-28T11:22:41.737Z,8.13
2019-05-28T11:25:13.464Z,8.63
2019-05-28T11:27:42.180Z,6.62
2019-05-28T11:30:13.728Z,6.72
2019-05-28T11:32:42.429Z,5.77
2019-05-28T11:35:12.065Z,6.17
2019-05-28T11:37:40.780Z,6.25
2019-05-28T11:40:11.798Z,6.12
2019-05-28T11:42:40.573Z,7.97
2019-05-28T11:45:11.503Z,10.63
2019-05-28T11:47:41.201Z,6.92
2019-05-28T11:50:11.150Z,8.45
2019-05-28T11:52:39.858Z,7.75
2019-05-28T11:55:13.492Z,6.90
2019-05-28T11:57:42.217Z,6.37
2019-05-28T12:00:11.835Z,5.80
2019-05-28T12:02:40.682Z,5.50
2019-05-28T12:05:10.732Z,6.20
2019-05-28T12:07:39.439Z,6.22
2019-05-28T12:10:09.164Z,5.83
2019-05-28T12:12:39.004Z,6.97
2019-05-28T12:15:10.510Z,7.55
2019-05-28T12:17:43.450Z,7.07
2019-05-28T12:20:12.401Z,7.33
2019-05-28T12:22:41.713Z,6.50
2019-05-28T12:25:12.319Z,7.33
2019-05-28T12:27:41.184Z,6.72
2019-05-28T12:30:11.413Z,7.30
2019-05-28T12:32:40.234Z,6.85
2019-05-28T12:35:26.498Z,7.42
2019-05-28T12:37:47.736Z,7.12
2019-05-28T12:40:10.311Z,7.75
2019-05-28T12:42:39.021Z,9.33
2019-05-28T12:45:11.569Z,8.90
2019-05-28T12:47:40.325Z,8.20
2019-05-28T12:50:18.881Z,7.67
2019-05-28T12:52:40.897Z,7.72
2019-05-28T12:55:10.733Z,7.47
2019-05-28T12:57:39.466Z,7.50
2019-05-28T13:00:13.296Z,7.45
2019-05-28T13:02:42.020Z,7.60
2019-05-28T13:05:21.664Z,10.72
2019-05-28T13:08:06.275Z,10.23
2019-05-28T13:10:20.873Z,8.68
2019-05-28T13:12:49.596Z,8.93
2019-05-28T13:15:19.439Z,8.48
2019-05-28T13:17:48.174Z,6.87
2019-05-28T13:20:18.603Z,12.50
2019-05-28T13:22:47.424Z,17.85
2019-05-28T13:25:16.367Z,17.95
2019-05-28T13:27:45.024Z,17.02
2019-05-28T13:30:14.865Z,9.60
2019-05-28T13:32:44.284Z,10.58
2019-05-28T13:35:14.404Z,10.68
2019-05-28T13:37:43.220Z,9.08
2019-05-28T13:40:13.975Z,9.18
2019-05-28T13:42:42.701Z,8.70
2019-05-28T13:45:11.639Z,7.87
2019-05-28T13:47:40.408Z,7.75
2019-05-28T13:50:11.150Z,10.32
2019-05-28T13:52:40.032Z,9.08
2019-05-28T13:55:11.823Z,7.78
2019-05-28T13:57:40.545Z,7.97
2019-05-28T14:00:12.044Z,7.40
2019-05-28T14:02:45.716Z,7.77
2019-05-28T14:05:13.714Z,7.85
2019-05-28T14:07:42.479Z,10.72
2019-05-28T14:10:13.103Z,10.55
2019-05-28T14:12:42.033Z,11.40
2019-05-28T14:15:31.493Z,11.28
2019-05-28T14:18:00.215Z,9.63
2019-05-28T14:20:29.008Z,9.50
2019-05-28T14:22:57.732Z,9.88
2019-05-28T14:25:26.653Z,12.73
2019-05-28T14:27:55.386Z,11.18
2019-05-28T14:30:24.412Z,11.63
2019-05-28T14:32:53.147Z,11.63
2019-05-28T14:35:22.013Z,12.60
2019-05-28T14:37:50.916Z,12.50
2019-05-28T14:40:24.061Z,12.40
2019-05-28T14:42:50.418Z,27.50
2019-05-28T14:45:19.542Z,21.05
2019-05-28T14:47:48.324Z,15.35
2019-05-28T14:50:23.604Z,17.00
2019-05-28T14:52:52.363Z,17.23
2019-05-28T14:55:21.092Z,12.82
2019-05-28T14:57:49.906Z,14.25
2019-05-28T15:00:19.633Z,14.23
2019-05-28T15:02:48.373Z,11.63
2019-05-28T15:05:18.523Z,14.75
2019-05-28T15:07:47.289Z,13.22
2019-05-28T15:10:22.287Z,14.75
2019-05-28T15:12:51.251Z,12.63
2019-05-28T15:15:34.546Z,9.55
2019-05-28T15:17:50.629Z,9.75
2019-05-28T15:20:19.558Z,10.40
2019-05-28T15:22:48.344Z,9.35
2019-05-28T15:25:17.436Z,11.38
2019-05-28T15:27:46.976Z,11.15
2019-05-28T15:30:18.110Z,14.50
2019-05-28T15:32:46.833Z,12.23
2019-05-28T15:35:16.163Z,12.00
2019-05-28T15:37:55.741Z,11.55
2019-05-28T15:40:24.570Z,12.13
2019-05-28T15:43:05.657Z,15.72
2019-05-28T15:45:23.596Z,15.13
2019-05-28T15:47:52.255Z,12.58
2019-05-28T15:50:21.429Z,12.23
2019-05-28T15:52:50.137Z,12.25
2019-05-28T15:55:18.866Z,12.60
2019-05-28T15:57:47.550Z,13.80
2019-05-28T16:00:22.350Z,12.53
2019-05-28T16:02:51.823Z,13.72
2019-05-28T16:05:20.734Z,14.33
2019-05-28T16:07:49.455Z,13.45
2019-05-28T16:10:18.296Z,13.38
2019-05-28T16:12:47.020Z,11.57
2019-05-28T16:15:17.819Z,11.20
2019-05-28T16:17:46.546Z,12.78
2019-05-28T16:20:15.960Z,13.13
2019-05-28T16:22:44.640Z,13.70
2019-05-28T16:25:13.823Z,14.90
2019-05-28T16:27:42.553Z,13.98
2019-05-28T16:30:11.874Z,14.20
2019-05-28T16:32:40.662Z,18.95
2019-05-28T16:35:10.974Z,15.72
2019-05-28T16:37:39.701Z,21.10
2019-05-28T16:40:15.582Z,14.93
2019-05-28T16:42:41.193Z,13.55
2019-05-28T16:45:10.594Z,14.40
2019-05-28T16:47:39.531Z,15.08
2019-05-28T16:50:09.070Z,19.23
2019-05-28T16:52:37.803Z,17.98
2019-05-28T16:55:07.341Z,19.15
2019-05-28T16:57:36.144Z,18.92
2019-05-28T17:00:07.581Z,30.43
2019-05-28T17:02:36.572Z,20.27
2019-05-28T17:05:08.760Z,21.42
2019-05-28T17:07:37.481Z,24.00
2019-05-28T17:10:07.500Z,28.98
2019-05-28T17:12:36.405Z,26.05
2019-05-28T17:15:06.855Z,22.82
2019-05-28T17:17:35.635Z,19.90
2019-05-28T17:20:09.801Z,18.60
2019-05-28T17:22:38.577Z,19.02
2019-05-28T17:25:11.733Z,18.23
2019-05-28T17:27:39.357Z,17.55
2019-05-28T17:30:19.181Z,18.77
2019-05-28T17:32:42.739Z,18.27
2019-05-28T17:35:11.870Z,20.52
2019-05-28T17:37:40.615Z,18.32
2019-05-28T17:40:09.736Z,15.93
2019-05-28T17:42:38.471Z,16.45
2019-05-28T17:45:08.793Z,17.65
2019-05-28T17:47:43.326Z,18.05
2019-05-28T17:50:09.794Z,16.10
2019-05-28T17:52:39.263Z,16.50
2019-05-28T17:55:08.353Z,15.35
2019-05-28T17:57:37.040Z,16.00
2019-05-28T18:00:06.664Z,16.90
2019-05-28T18:02:35.376Z,17.05
2019-05-28T18:05:06.180Z,16.17
2019-05-28T18:07:34.922Z,18.27
2019-05-28T18:10:06.156Z,19.00
2019-05-28T18:12:34.910Z,20.92
2019-05-28T18:15:04.655Z,24.05
2019-05-28T18:17:33.389Z,22.52
2019-05-28T18:20:02.147Z,21.93
2019-05-28T18:22:30.913Z,23.20
2019-05-28T18:24:59.705Z,22.87
2019-05-28T18:27:28.809Z,21.65
2019-05-28T18:29:57.469Z,21.85
2019-05-28T18:32:26.266Z,20.97
2019-05-28T18:34:54.896Z,21.80
2019-05-28T18:37:23.620Z,24.80
2019-05-28T18:39:52.345Z,23.90
2019-05-28T18:42:21.068Z,23.80
2019-05-28T18:44:49.840Z,25.20
2019-05-28T18:47:18.578Z,23.00
2019-05-28T18:49:47.447Z,21.80
2019-05-28T18:52:16.198Z,21.90
2019-05-28T18:54:44.968Z,21.05
2019-05-28T18:57:13.709Z,21.15
2019-05-28T18:59:42.560Z,20.82
2019-05-28T19:02:11.358Z,20.82
2019-05-28T19:04:40.159Z,20.62
2019-05-28T19:07:08.888Z,21.25
2019-05-28T19:09:37.541Z,18.75
2019-05-28T19:12:06.312Z,19.02
2019-05-28T19:14:35.044Z,20.70
2019-05-28T19:17:03.772Z,20.23
2019-05-28T19:19:32.601Z,20.65
2019-05-28T19:22:01.391Z,20.10
2019-05-28T19:24:30.033Z,20.68
2019-05-28T19:26:58.759Z,22.82
2019-05-28T19:29:27.504Z,20.72
2019-05-28T19:31:56.348Z,24.57
2019-05-28T19:34:25.104Z,26.62
2019-05-28T19:36:56.387Z,26.05
2019-05-28T19:39:24.442Z,27.27
2019-05-28T19:41:54.684Z,25.23
2019-05-28T19:44:23.531Z,25.70
2019-05-28T19:46:52.176Z,23.42
2019-05-28T19:49:20.906Z,31.25
2019-05-28T19:51:49.739Z,29.23
2019-05-28T19:54:18.478Z,24.25
2019-05-28T19:56:47.171Z,29.60
2019-05-28T19:59:15.910Z,26.07
2019-05-28T20:01:44.704Z,26.20
2019-05-28T20:04:13.471Z,26.65
2019-05-28T20:06:42.276Z,25.12
2019-05-28T20:09:11.004Z,25.08
2019-05-28T20:11:39.664Z,25.23
2019-05-28T20:14:08.365Z,23.98
2019-05-28T20:16:37.057Z,23.07
2019-05-28T20:19:05.777Z,23.75
2019-05-28T20:21:34.517Z,30.35
2019-05-28T20:24:03.300Z,29.18
2019-05-28T20:26:32.081Z,32.50
2019-05-28T20:29:08.552Z,34.48
2019-05-28T20:31:31.160Z,34.40
2019-05-28T20:34:01.057Z,33.95
2019-05-28T20:36:30.024Z,26.68
2019-05-28T20:38:59.585Z,32.65
2019-05-28T20:41:28.500Z,36.10
2019-05-28T20:43:57.227Z,36.35
2019-05-28T20:46:25.881Z,37.33
2019-05-28T20:48:57.529Z,32.17
2019-05-28T20:51:26.179Z,32.60
2019-05-28T20:53:54.925Z,29.37
2019-05-28T20:56:23.698Z,30.82
2019-05-28T20:58:52.365Z,29.50
2019-05-28T21:01:21.101Z,32.35
2019-05-28T21:03:49.831Z,30.30
2019-05-28T21:06:18.480Z,28.10
2019-05-28T21:08:48.060Z,27.45
2019-05-28T21:11:16.876Z,30.97
2019-05-28T21:13:45.608Z,49.98
2019-05-28T21:16:14.401Z,46.25
2019-05-28T21:18:43.244Z,50.60
2019-05-28T21:21:11.983Z,44.45
2019-05-28T21:23:40.642Z,26.55
2019-05-28T21:26:09.292Z,22.32
2019-05-28T21:28:37.964Z,18.82
2019-05-28T21:31:06.681Z,17.60
2019-05-28T21:33:35.425Z,17.05
2019-05-28T21:36:04.173Z,16.55
2019-05-28T21:38:32.890Z,17.15
2019-05-28T21:41:01.804Z,16.57
2019-05-28T21:43:30.536Z,15.65
2019-05-28T21:46:00.442Z,16.27
2019-05-28T21:48:29.380Z,15.78
2019-05-28T21:50:58.786Z,17.30
2019-05-28T21:53:27.569Z,16.75
2019-05-28T21:55:57.210Z,16.87
2019-05-28T21:58:26.018Z,19.67
2019-05-28T22:01:00.521Z,22.67
2019-05-28T22:03:29.242Z,35.65
2019-05-28T22:05:59.300Z,46.37
2019-05-28T22:08:28.092Z,51.53
2019-05-28T22:10:57.713Z,52.08
2019-05-28T22:13:26.490Z,49.63
2019-05-28T22:15:56.017Z,51.65
2019-05-28T22:18:24.769Z,48.58
2019-05-28T22:20:53.497Z,50.52
2019-05-28T22:23:22.324Z,50.20
2019-05-28T22:25:51.093Z,51.48
2019-05-28T22:28:19.773Z,52.15
2019-05-28T22:30:48.501Z,48.02
2019-05-28T22:33:17.226Z,42.95
2019-05-28T22:35:45.952Z,47.33
2019-05-28T22:38:14.680Z,52.15
2019-05-28T22:40:43.444Z,65.78
2019-05-28T22:43:12.175Z,85.12
2019-05-28T22:45:43.208Z,92.45
2019-05-28T22:48:16.963Z,61.68
2019-05-28T22:50:42.480Z,28.02
2019-05-28T22:53:11.237Z,22.62
2019-05-28T22:55:39.970Z,21.87
2019-05-28T22:58:08.715Z,27.45
2019-05-28T23:00:37.476Z,27.62
2019-05-28T23:03:07.090Z,27.50
2019-05-28T23:05:36.033Z,27.67
2019-05-28T23:08:05.798Z,23.12
2019-05-28T23:10:34.689Z,16.35
2019-05-28T23:13:03.416Z,12.63
2019-05-28T23:15:32.112Z,11.50
2019-05-28T23:18:00.837Z,10.28
2019-05-28T23:20:29.488Z,9.35
2019-05-28T23:22:58.142Z,8.65
2019-05-28T23:25:26.861Z,7.55
2019-05-28T23:27:55.520Z,7.72
2019-05-28T23:30:25.448Z,6.65
2019-05-28T23:32:54.360Z,6.80
2019-05-28T23:35:23.085Z,8.48
2019-05-28T23:37:51.776Z,9.95
2019-05-28T23:40:20.493Z,10.72
2019-05-28T23:42:49.220Z,12.80
2019-05-28T23:45:17.948Z,11.03
2019-05-28T23:47:46.604Z,12.93
2019-05-28T23:50:18.093Z,12.13
2019-05-28T23:52:45.865Z,10.85
2019-05-28T23:55:14.588Z,9.90
2019-05-28T23:57:43.309Z,7.97
